sensor_id;sensor_type;location;lat;lon;timestamp;P1;durP1;ratioP1;P2;durP2;ratioP2
4831;SDS011;2430;51.322;7.864;2022-12-31T00:00:32;0.70;;;0.70;;
4831;SDS011;2430;51.322;7.864;2022-12-31T00:03:00;1.53;;;0.73;;
4831;SDS011;2430;51.322;7.864;2022-12-31T00:05:28;1.23;;;0.80;;
4831;SDS011;2430;51.322;7.864;2022-12-31T00:07:55;0.70;;;0.67;;
4831;SDS011;2430;51.322;7.864;2022-12-31T00:10:21;0.67;;;0.60;;
4831;SDS011;2430;51.322;7.864;2022-12-31T00:12:47;0.90;;;0.80;;
4831;SDS011;2430;51.322;7.864;2022-12-31T00:15:14;0.70;;;0.60;;
4831;SDS011;2430;51.322;7.864;2022-12-31T00:17:40;0.70;;;0.60;;
4831;SDS011;2430;51.322;7.864;2022-12-31T00:20:08;1.03;;;0.83;;
4831;SDS011;2430;51.322;7.864;2022-12-31T00:22:35;0.70;;;0.60;;
4831;SDS011;2430;51.322;7.864;2022-12-31T00:25:02;0.70;;;0.60;;
4831;SDS011;2430;51.322;7.864;2022-12-31T00:27:29;0.80;;;0.60;;
4831;SDS011;2430;51.322;7.864;2022-12-31T00:29:55;0.70;;;0.60;;
4831;SDS011;2430;51.322;7.864;2022-12-31T00:32:21;0.63;;;0.63;;
4831;SDS011;2430;51.322;7.864;2022-12-31T00:34:48;0.60;;;0.50;;
4831;SDS011;2430;51.322;7.864;2022-12-31T00:37:15;0.60;;;0.50;;
4831;SDS011;2430;51.322;7.864;2022-12-31T00:39:42;2.03;;;0.90;;
4831;SDS011;2430;51.322;7.864;2022-12-31T00:42:11;0.60;;;0.60;;
4831;SDS011;2430;51.322;7.864;2022-12-31T00:44:37;0.90;;;0.80;;
4831;SDS011;2430;51.322;7.864;2022-12-31T00:47:03;0.70;;;0.60;;
4831;SDS011;2430;51.322;7.864;2022-12-31T00:49:30;0.60;;;0.57;;
4831;SDS011;2430;51.322;7.864;2022-12-31T00:51:56;0.70;;;0.63;;
4831;SDS011;2430;51.322;7.864;2022-12-31T00:54:24;1.27;;;0.80;;
4831;SDS011;2430;51.322;7.864;2022-12-31T00:56:50;0.80;;;0.70;;
4831;SDS011;2430;51.322;7.864;2022-12-31T00:59:17;0.60;;;0.50;;
4831;SDS011;2430;51.322;7.864;2022-12-31T01:01:43;0.80;;;0.70;;
4831;SDS011;2430;51.322;7.864;2022-12-31T01:04:10;0.70;;;0.60;;
4831;SDS011;2430;51.322;7.864;2022-12-31T01:06:37;0.60;;;0.60;;
4831;SDS011;2430;51.322;7.864;2022-12-31T01:09:04;0.70;;;0.70;;
4831;SDS011;2430;51.322;7.864;2022-12-31T01:11:31;0.63;;;0.60;;
4831;SDS011;2430;51.322;7.864;2022-12-31T01:13:59;0.67;;;0.60;;
4831;SDS011;2430;51.322;7.864;2022-12-31T01:16:26;0.90;;;0.77;;
4831;SDS011;2430;51.322;7.864;2022-12-31T01:18:53;0.70;;;0.60;;
4831;SDS011;2430;51.322;7.864;2022-12-31T01:21:20;0.60;;;0.60;;
4831;SDS011;2430;51.322;7.864;2022-12-31T01:23:47;0.83;;;0.73;;
4831;SDS011;2430;51.322;7.864;2022-12-31T01:26:13;4.20;;;0.67;;
4831;SDS011;2430;51.322;7.864;2022-12-31T01:28:41;0.70;;;0.63;;
4831;SDS011;2430;51.322;7.864;2022-12-31T01:31:09;0.80;;;0.80;;
4831;SDS011;2430;51.322;7.864;2022-12-31T01:33:36;0.80;;;0.80;;
4831;SDS011;2430;51.322;7.864;2022-12-31T01:36:05;0.70;;;0.60;;
4831;SDS011;2430;51.322;7.864;2022-12-31T01:38:31;0.70;;;0.67;;
4831;SDS011;2430;51.322;7.864;2022-12-31T01:40:58;0.60;;;0.60;;
4831;SDS011;2430;51.322;7.864;2022-12-31T01:46:10;0.80;;;0.73;;
4831;SDS011;2430;51.322;7.864;2022-12-31T01:48:38;0.70;;;0.60;;
4831;SDS011;2430;51.322;7.864;2022-12-31T01:51:05;0.70;;;0.63;;
4831;SDS011;2430;51.322;7.864;2022-12-31T01:53:34;1.27;;;0.70;;
4831;SDS011;2430;51.322;7.864;2022-12-31T01:56:00;0.77;;;0.63;;
4831;SDS011;2430;51.322;7.864;2022-12-31T01:58:27;0.70;;;0.70;;
4831;SDS011;2430;51.322;7.864;2022-12-31T02:00:54;0.70;;;0.60;;
4831;SDS011;2430;51.322;7.864;2022-12-31T02:03:24;0.70;;;0.60;;
4831;SDS011;2430;51.322;7.864;2022-12-31T02:05:53;0.60;;;0.50;;
4831;SDS011;2430;51.322;7.864;2022-12-31T02:08:20;0.60;;;0.50;;
4831;SDS011;2430;51.322;7.864;2022-12-31T02:10:46;0.70;;;0.60;;
4831;SDS011;2430;51.322;7.864;2022-12-31T02:13:13;0.60;;;0.50;;
4831;SDS011;2430;51.322;7.864;2022-12-31T02:15:43;0.60;;;0.60;;
4831;SDS011;2430;51.322;7.864;2022-12-31T02:18:14;0.80;;;0.60;;
4831;SDS011;2430;51.322;7.864;2022-12-31T02:23:56;0.60;;;0.50;;
4831;SDS011;2430;51.322;7.864;2022-12-31T02:26:35;0.60;;;0.50;;
4831;SDS011;2430;51.322;7.864;2022-12-31T02:29:09;1.00;;;0.60;;
4831;SDS011;2430;51.322;7.864;2022-12-31T02:31:43;0.60;;;0.60;;
4831;SDS011;2430;51.322;7.864;2022-12-31T02:34:12;0.63;;;0.60;;
4831;SDS011;2430;51.322;7.864;2022-12-31T02:36:39;0.70;;;0.60;;
4831;SDS011;2430;51.322;7.864;2022-12-31T02:39:07;0.60;;;0.60;;
4831;SDS011;2430;51.322;7.864;2022-12-31T02:41:35;0.80;;;0.57;;
4831;SDS011;2430;51.322;7.864;2022-12-31T02:44:20;0.67;;;0.60;;
4831;SDS011;2430;51.322;7.864;2022-12-31T02:46:49;0.60;;;0.60;;
4831;SDS011;2430;51.322;7.864;2022-12-31T02:49:19;0.70;;;0.70;;
4831;SDS011;2430;51.322;7.864;2022-12-31T02:51:49;0.63;;;0.57;;
4831;SDS011;2430;51.322;7.864;2022-12-31T02:54:18;0.60;;;0.60;;
4831;SDS011;2430;51.322;7.864;2022-12-31T02:56:50;0.60;;;0.50;;
4831;SDS011;2430;51.322;7.864;2022-12-31T02:59:19;0.60;;;0.50;;
4831;SDS011;2430;51.322;7.864;2022-12-31T03:02:07;0.60;;;0.50;;
4831;SDS011;2430;51.322;7.864;2022-12-31T03:04:41;0.67;;;0.60;;
4831;SDS011;2430;51.322;7.864;2022-12-31T03:07:08;0.70;;;0.60;;
4831;SDS011;2430;51.322;7.864;2022-12-31T03:09:36;0.60;;;0.50;;
4831;SDS011;2430;51.322;7.864;2022-12-31T03:12:03;0.60;;;0.50;;
4831;SDS011;2430;51.322;7.864;2022-12-31T03:14:47;0.60;;;0.60;;
4831;SDS011;2430;51.322;7.864;2022-12-31T03:17:15;0.70;;;0.60;;
4831;SDS011;2430;51.322;7.864;2022-12-31T03:19:42;0.70;;;0.50;;
4831;SDS011;2430;51.322;7.864;2022-12-31T03:22:25;0.63;;;0.50;;
4831;SDS011;2430;51.322;7.864;2022-12-31T03:24:56;0.70;;;0.60;;
4831;SDS011;2430;51.322;7.864;2022-12-31T03:27:40;0.70;;;0.50;;
4831;SDS011;2430;51.322;7.864;2022-12-31T03:30:07;0.60;;;0.50;;
4831;SDS011;2430;51.322;7.864;2022-12-31T03:32:35;0.70;;;0.60;;
4831;SDS011;2430;51.322;7.864;2022-12-31T03:35:02;0.70;;;0.60;;
4831;SDS011;2430;51.322;7.864;2022-12-31T03:37:28;0.70;;;0.60;;
4831;SDS011;2430;51.322;7.864;2022-12-31T03:39:54;0.60;;;0.50;;
4831;SDS011;2430;51.322;7.864;2022-12-31T03:42:21;0.70;;;0.60;;
4831;SDS011;2430;51.322;7.864;2022-12-31T03:44:47;0.60;;;0.50;;
4831;SDS011;2430;51.322;7.864;2022-12-31T03:47:14;0.60;;;0.60;;
4831;SDS011;2430;51.322;7.864;2022-12-31T03:49:42;0.60;;;0.50;;
4831;SDS011;2430;51.322;7.864;2022-12-31T03:52:08;0.70;;;0.60;;
4831;SDS011;2430;51.322;7.864;2022-12-31T03:54:34;0.70;;;0.60;;
4831;SDS011;2430;51.322;7.864;2022-12-31T03:57:01;0.67;;;0.53;;
4831;SDS011;2430;51.322;7.864;2022-12-31T03:59:27;0.70;;;0.60;;
4831;SDS011;2430;51.322;7.864;2022-12-31T04:01:54;0.70;;;0.60;;
4831;SDS011;2430;51.322;7.864;2022-12-31T04:04:20;0.70;;;0.60;;
4831;SDS011;2430;51.322;7.864;2022-12-31T04:06:48;0.60;;;0.50;;
4831;SDS011;2430;51.322;7.864;2022-12-31T04:09:15;0.60;;;0.50;;
4831;SDS011;2430;51.322;7.864;2022-12-31T04:11:41;0.70;;;0.60;;
4831;SDS011;2430;51.322;7.864;2022-12-31T04:14:07;0.70;;;0.60;;
4831;SDS011;2430;51.322;7.864;2022-12-31T04:16:34;0.70;;;0.60;;
4831;SDS011;2430;51.322;7.864;2022-12-31T04:19:00;0.60;;;0.50;;
4831;SDS011;2430;51.322;7.864;2022-12-31T04:21:26;0.60;;;0.50;;
4831;SDS011;2430;51.322;7.864;2022-12-31T04:23:54;0.60;;;0.50;;
4831;SDS011;2430;51.322;7.864;2022-12-31T04:26:21;0.60;;;0.50;;
4831;SDS011;2430;51.322;7.864;2022-12-31T04:28:47;0.60;;;0.50;;
4831;SDS011;2430;51.322;7.864;2022-12-31T04:31:14;0.70;;;0.60;;
4831;SDS011;2430;51.322;7.864;2022-12-31T04:33:40;0.60;;;0.60;;
4831;SDS011;2430;51.322;7.864;2022-12-31T04:36:07;0.60;;;0.50;;
4831;SDS011;2430;51.322;7.864;2022-12-31T04:38:33;0.60;;;0.50;;
4831;SDS011;2430;51.322;7.864;2022-12-31T04:41:02;0.70;;;0.67;;
4831;SDS011;2430;51.322;7.864;2022-12-31T04:43:45;0.90;;;0.70;;
4831;SDS011;2430;51.322;7.864;2022-12-31T04:46:12;0.60;;;0.50;;
4831;SDS011;2430;51.322;7.864;2022-12-31T04:48:39;0.80;;;0.57;;
4831;SDS011;2430;51.322;7.864;2022-12-31T04:51:05;0.63;;;0.50;;
4831;SDS011;2430;51.322;7.864;2022-12-31T04:53:32;0.60;;;0.60;;
4831;SDS011;2430;51.322;7.864;2022-12-31T04:55:58;0.60;;;0.50;;
4831;SDS011;2430;51.322;7.864;2022-12-31T04:58:26;0.60;;;0.53;;
4831;SDS011;2430;51.322;7.864;2022-12-31T05:00:53;0.80;;;0.60;;
4831;SDS011;2430;51.322;7.864;2022-12-31T05:03:19;0.60;;;0.50;;
4831;SDS011;2430;51.322;7.864;2022-12-31T05:05:46;0.70;;;0.60;;
4831;SDS011;2430;51.322;7.864;2022-12-31T05:08:14;0.60;;;0.60;;
4831;SDS011;2430;51.322;7.864;2022-12-31T05:10:41;0.60;;;0.50;;
4831;SDS011;2430;51.322;7.864;2022-12-31T05:13:07;0.70;;;0.60;;
4831;SDS011;2430;51.322;7.864;2022-12-31T05:15:35;0.60;;;0.50;;
4831;SDS011;2430;51.322;7.864;2022-12-31T05:18:02;0.80;;;0.60;;
4831;SDS011;2430;51.322;7.864;2022-12-31T05:20:28;0.60;;;0.50;;
4831;SDS011;2430;51.322;7.864;2022-12-31T05:22:55;0.70;;;0.57;;
4831;SDS011;2430;51.322;7.864;2022-12-31T05:25:21;0.67;;;0.50;;
4831;SDS011;2430;51.322;7.864;2022-12-31T05:27:48;0.60;;;0.60;;
4831;SDS011;2430;51.322;7.864;2022-12-31T05:30:14;0.60;;;0.50;;
4831;SDS011;2430;51.322;7.864;2022-12-31T05:32:44;0.90;;;0.73;;
4831;SDS011;2430;51.322;7.864;2022-12-31T05:35:12;0.70;;;0.50;;
4831;SDS011;2430;51.322;7.864;2022-12-31T05:37:38;0.70;;;0.60;;
4831;SDS011;2430;51.322;7.864;2022-12-31T05:40:05;0.77;;;0.73;;
4831;SDS011;2430;51.322;7.864;2022-12-31T05:42:31;0.70;;;0.70;;
4831;SDS011;2430;51.322;7.864;2022-12-31T05:44:58;2.83;;;0.80;;
4831;SDS011;2430;51.322;7.864;2022-12-31T05:47:24;1.00;;;0.70;;
4831;SDS011;2430;51.322;7.864;2022-12-31T05:49:52;0.80;;;0.80;;
4831;SDS011;2430;51.322;7.864;2022-12-31T05:52:18;0.70;;;0.60;;
4831;SDS011;2430;51.322;7.864;2022-12-31T05:54:45;0.60;;;0.50;;
4831;SDS011;2430;51.322;7.864;2022-12-31T05:57:12;0.70;;;0.50;;
4831;SDS011;2430;51.322;7.864;2022-12-31T05:59:38;0.70;;;0.60;;
4831;SDS011;2430;51.322;7.864;2022-12-31T06:02:04;0.70;;;0.50;;
4831;SDS011;2430;51.322;7.864;2022-12-31T06:04:31;0.70;;;0.50;;
4831;SDS011;2430;51.322;7.864;2022-12-31T06:06:59;0.70;;;0.60;;
4831;SDS011;2430;51.322;7.864;2022-12-31T06:09:25;0.70;;;0.60;;
4831;SDS011;2430;51.322;7.864;2022-12-31T06:11:51;0.70;;;0.50;;
4831;SDS011;2430;51.322;7.864;2022-12-31T06:14:18;0.70;;;0.60;;
4831;SDS011;2430;51.322;7.864;2022-12-31T06:16:44;0.70;;;0.60;;
4831;SDS011;2430;51.322;7.864;2022-12-31T06:19:11;0.83;;;0.60;;
4831;SDS011;2430;51.322;7.864;2022-12-31T06:21:37;0.70;;;0.60;;
4831;SDS011;2430;51.322;7.864;2022-12-31T06:24:12;1.27;;;0.70;;
4831;SDS011;2430;51.322;7.864;2022-12-31T06:26:38;0.73;;;0.60;;
4831;SDS011;2430;51.322;7.864;2022-12-31T06:29:05;1.33;;;0.80;;
4831;SDS011;2430;51.322;7.864;2022-12-31T06:31:32;0.70;;;0.60;;
4831;SDS011;2430;51.322;7.864;2022-12-31T06:33:58;1.63;;;0.70;;
4831;SDS011;2430;51.322;7.864;2022-12-31T06:36:25;0.67;;;0.57;;
4831;SDS011;2430;51.322;7.864;2022-12-31T06:38:52;0.70;;;0.60;;
4831;SDS011;2430;51.322;7.864;2022-12-31T06:41:20;0.60;;;0.60;;
4831;SDS011;2430;51.322;7.864;2022-12-31T06:43:47;1.53;;;0.97;;
4831;SDS011;2430;51.322;7.864;2022-12-31T06:46:16;3.23;;;0.90;;
4831;SDS011;2430;51.322;7.864;2022-12-31T06:48:43;0.70;;;0.60;;
4831;SDS011;2430;51.322;7.864;2022-12-31T06:51:10;0.70;;;0.70;;
4831;SDS011;2430;51.322;7.864;2022-12-31T06:53:37;1.10;;;0.73;;
4831;SDS011;2430;51.322;7.864;2022-12-31T06:56:04;2.50;;;0.80;;
4831;SDS011;2430;51.322;7.864;2022-12-31T06:58:32;0.70;;;0.60;;
4831;SDS011;2430;51.322;7.864;2022-12-31T07:01:00;0.70;;;0.60;;
4831;SDS011;2430;51.322;7.864;2022-12-31T07:03:32;0.80;;;0.70;;
4831;SDS011;2430;51.322;7.864;2022-12-31T07:06:03;1.50;;;0.70;;
4831;SDS011;2430;51.322;7.864;2022-12-31T07:08:40;0.70;;;0.70;;
4831;SDS011;2430;51.322;7.864;2022-12-31T07:11:08;3.33;;;0.70;;
4831;SDS011;2430;51.322;7.864;2022-12-31T07:13:55;0.90;;;0.70;;
4831;SDS011;2430;51.322;7.864;2022-12-31T07:16:28;0.70;;;0.67;;
4831;SDS011;2430;51.322;7.864;2022-12-31T07:19:02;0.70;;;0.60;;
4831;SDS011;2430;51.322;7.864;2022-12-31T07:21:32;0.80;;;0.60;;
4831;SDS011;2430;51.322;7.864;2022-12-31T07:24:00;0.70;;;0.67;;
4831;SDS011;2430;51.322;7.864;2022-12-31T07:26:33;1.23;;;0.77;;
4831;SDS011;2430;51.322;7.864;2022-12-31T07:29:04;1.00;;;0.90;;
4831;SDS011;2430;51.322;7.864;2022-12-31T07:31:39;0.70;;;0.60;;
4831;SDS011;2430;51.322;7.864;2022-12-31T07:34:13;0.70;;;0.60;;
4831;SDS011;2430;51.322;7.864;2022-12-31T07:36:48;0.70;;;0.70;;
4831;SDS011;2430;51.322;7.864;2022-12-31T07:39:18;0.70;;;0.70;;
4831;SDS011;2430;51.322;7.864;2022-12-31T07:41:49;0.70;;;0.60;;
4831;SDS011;2430;51.322;7.864;2022-12-31T07:44:26;1.33;;;0.83;;
4831;SDS011;2430;51.322;7.864;2022-12-31T07:46:55;6.40;;;0.80;;
4831;SDS011;2430;51.322;7.864;2022-12-31T07:49:22;0.93;;;0.67;;
4831;SDS011;2430;51.322;7.864;2022-12-31T07:54:18;1.07;;;0.70;;
4831;SDS011;2430;51.322;7.864;2022-12-31T07:56:45;0.90;;;0.60;;
4831;SDS011;2430;51.322;7.864;2022-12-31T07:59:15;5.30;;;1.37;;
4831;SDS011;2430;51.322;7.864;2022-12-31T08:01:49;0.70;;;0.60;;
4831;SDS011;2430;51.322;7.864;2022-12-31T08:04:18;0.90;;;0.70;;
4831;SDS011;2430;51.322;7.864;2022-12-31T08:06:48;0.90;;;0.70;;
4831;SDS011;2430;51.322;7.864;2022-12-31T08:09:22;0.90;;;0.90;;
4831;SDS011;2430;51.322;7.864;2022-12-31T08:11:51;1.37;;;0.80;;
4831;SDS011;2430;51.322;7.864;2022-12-31T08:14:20;0.70;;;0.60;;
4831;SDS011;2430;51.322;7.864;2022-12-31T08:16:49;0.70;;;0.70;;
4831;SDS011;2430;51.322;7.864;2022-12-31T08:19:18;0.90;;;0.80;;
4831;SDS011;2430;51.322;7.864;2022-12-31T08:21:47;0.80;;;0.70;;
4831;SDS011;2430;51.322;7.864;2022-12-31T08:24:16;0.73;;;0.67;;
4831;SDS011;2430;51.322;7.864;2022-12-31T08:26:46;0.70;;;0.63;;
4831;SDS011;2430;51.322;7.864;2022-12-31T08:29:22;0.80;;;0.60;;
4831;SDS011;2430;51.322;7.864;2022-12-31T08:31:53;0.70;;;0.60;;
4831;SDS011;2430;51.322;7.864;2022-12-31T08:34:24;0.80;;;0.70;;
4831;SDS011;2430;51.322;7.864;2022-12-31T08:36:53;3.87;;;0.80;;
4831;SDS011;2430;51.322;7.864;2022-12-31T08:39:24;0.80;;;0.70;;
4831;SDS011;2430;51.322;7.864;2022-12-31T08:41:52;1.27;;;1.00;;
4831;SDS011;2430;51.322;7.864;2022-12-31T08:44:22;0.80;;;0.70;;
4831;SDS011;2430;51.322;7.864;2022-12-31T08:46:54;0.90;;;0.80;;
4831;SDS011;2430;51.322;7.864;2022-12-31T08:49:22;0.80;;;0.60;;
4831;SDS011;2430;51.322;7.864;2022-12-31T08:51:51;0.70;;;0.60;;
4831;SDS011;2430;51.322;7.864;2022-12-31T08:54:17;1.97;;;0.80;;
4831;SDS011;2430;51.322;7.864;2022-12-31T08:56:45;0.70;;;0.60;;
4831;SDS011;2430;51.322;7.864;2022-12-31T08:59:18;1.67;;;1.10;;
4831;SDS011;2430;51.322;7.864;2022-12-31T09:01:51;0.80;;;0.80;;
4831;SDS011;2430;51.322;7.864;2022-12-31T09:04:23;1.10;;;0.80;;
4831;SDS011;2430;51.322;7.864;2022-12-31T09:06:55;8.33;;;1.00;;
4831;SDS011;2430;51.322;7.864;2022-12-31T09:09:26;1.03;;;0.87;;
4831;SDS011;2430;51.322;7.864;2022-12-31T09:11:56;1.27;;;0.60;;
4831;SDS011;2430;51.322;7.864;2022-12-31T09:14:38;0.90;;;0.73;;
4831;SDS011;2430;51.322;7.864;2022-12-31T09:17:07;2.20;;;0.80;;
4831;SDS011;2430;51.322;7.864;2022-12-31T09:19:37;1.23;;;1.00;;
4831;SDS011;2430;51.322;7.864;2022-12-31T09:22:03;1.77;;;0.90;;
4831;SDS011;2430;51.322;7.864;2022-12-31T09:24:30;2.20;;;0.90;;
4831;SDS011;2430;51.322;7.864;2022-12-31T09:26:59;1.10;;;0.70;;
4831;SDS011;2430;51.322;7.864;2022-12-31T09:29:36;1.03;;;0.93;;
4831;SDS011;2430;51.322;7.864;2022-12-31T09:32:15;0.80;;;0.73;;
4831;SDS011;2430;51.322;7.864;2022-12-31T09:34:51;0.80;;;0.80;;
4831;SDS011;2430;51.322;7.864;2022-12-31T09:37:21;0.90;;;0.80;;
4831;SDS011;2430;51.322;7.864;2022-12-31T09:39:50;1.30;;;0.80;;
4831;SDS011;2430;51.322;7.864;2022-12-31T09:42:22;1.17;;;0.87;;
4831;SDS011;2430;51.322;7.864;2022-12-31T09:45:03;1.07;;;0.97;;
4831;SDS011;2430;51.322;7.864;2022-12-31T09:47:47;0.80;;;0.80;;
4831;SDS011;2430;51.322;7.864;2022-12-31T09:50:25;1.33;;;0.90;;
4831;SDS011;2430;51.322;7.864;2022-12-31T09:53:02;1.03;;;0.77;;
4831;SDS011;2430;51.322;7.864;2022-12-31T09:55:34;7.83;;;0.90;;
4831;SDS011;2430;51.322;7.864;2022-12-31T09:58:05;0.70;;;0.60;;
4831;SDS011;2430;51.322;7.864;2022-12-31T10:00:34;1.13;;;0.90;;
4831;SDS011;2430;51.322;7.864;2022-12-31T10:03:09;1.00;;;0.90;;
4831;SDS011;2430;51.322;7.864;2022-12-31T10:08:31;1.53;;;1.07;;
4831;SDS011;2430;51.322;7.864;2022-12-31T10:11:02;2.77;;;0.83;;
4831;SDS011;2430;51.322;7.864;2022-12-31T10:13:40;0.70;;;0.60;;
4831;SDS011;2430;51.322;7.864;2022-12-31T10:18:53;1.20;;;1.00;;
4831;SDS011;2430;51.322;7.864;2022-12-31T10:21:31;5.00;;;0.93;;
4831;SDS011;2430;51.322;7.864;2022-12-31T10:24:31;2.17;;;1.10;;
4831;SDS011;2430;51.322;7.864;2022-12-31T10:27:05;1.20;;;1.10;;
4831;SDS011;2430;51.322;7.864;2022-12-31T10:29:37;1.53;;;1.10;;
4831;SDS011;2430;51.322;7.864;2022-12-31T10:32:13;0.80;;;0.70;;
4831;SDS011;2430;51.322;7.864;2022-12-31T10:34:44;0.70;;;0.60;;
4831;SDS011;2430;51.322;7.864;2022-12-31T10:37:13;2.40;;;1.20;;
4831;SDS011;2430;51.322;7.864;2022-12-31T10:39:45;0.83;;;0.77;;
4831;SDS011;2430;51.322;7.864;2022-12-31T10:42:22;1.37;;;0.90;;
4831;SDS011;2430;51.322;7.864;2022-12-31T10:50:24;1.27;;;1.10;;
4831;SDS011;2430;51.322;7.864;2022-12-31T10:56:03;1.00;;;0.90;;
4831;SDS011;2430;51.322;7.864;2022-12-31T11:01:25;1.87;;;0.80;;
4831;SDS011;2430;51.322;7.864;2022-12-31T11:09:39;0.80;;;0.70;;
4831;SDS011;2430;51.322;7.864;2022-12-31T11:12:15;1.30;;;1.10;;
4831;SDS011;2430;51.322;7.864;2022-12-31T11:14:49;1.03;;;0.93;;
4831;SDS011;2430;51.322;7.864;2022-12-31T11:17:20;1.13;;;0.80;;
4831;SDS011;2430;51.322;7.864;2022-12-31T11:19:55;2.30;;;1.03;;
4831;SDS011;2430;51.322;7.864;2022-12-31T11:22:26;0.80;;;0.70;;
4831;SDS011;2430;51.322;7.864;2022-12-31T11:25:00;4.50;;;0.90;;
4831;SDS011;2430;51.322;7.864;2022-12-31T11:27:47;2.53;;;1.10;;
4831;SDS011;2430;51.322;7.864;2022-12-31T11:30:18;0.80;;;0.77;;
4831;SDS011;2430;51.322;7.864;2022-12-31T11:32:49;0.90;;;0.70;;
4831;SDS011;2430;51.322;7.864;2022-12-31T11:35:20;0.80;;;0.70;;
4831;SDS011;2430;51.322;7.864;2022-12-31T11:37:48;0.80;;;0.73;;
4831;SDS011;2430;51.322;7.864;2022-12-31T11:40:23;1.10;;;1.00;;
4831;SDS011;2430;51.322;7.864;2022-12-31T11:42:55;0.93;;;0.77;;
4831;SDS011;2430;51.322;7.864;2022-12-31T11:45:27;3.10;;;1.13;;
4831;SDS011;2430;51.322;7.864;2022-12-31T11:48:01;0.90;;;0.80;;
4831;SDS011;2430;51.322;7.864;2022-12-31T11:50:31;1.50;;;0.97;;
4831;SDS011;2430;51.322;7.864;2022-12-31T11:53:10;1.40;;;1.20;;
4831;SDS011;2430;51.322;7.864;2022-12-31T11:55:42;1.00;;;0.80;;
4831;SDS011;2430;51.322;7.864;2022-12-31T11:58:14;0.80;;;0.77;;
4831;SDS011;2430;51.322;7.864;2022-12-31T12:00:43;1.00;;;0.80;;
4831;SDS011;2430;51.322;7.864;2022-12-31T12:03:11;1.20;;;1.10;;
4831;SDS011;2430;51.322;7.864;2022-12-31T12:05:37;3.63;;;1.20;;
4831;SDS011;2430;51.322;7.864;2022-12-31T12:08:04;1.33;;;1.20;;
4831;SDS011;2430;51.322;7.864;2022-12-31T12:10:33;1.00;;;0.83;;
4831;SDS011;2430;51.322;7.864;2022-12-31T12:13:09;0.73;;;0.70;;
4831;SDS011;2430;51.322;7.864;2022-12-31T12:15:37;2.70;;;0.90;;
4831;SDS011;2430;51.322;7.864;2022-12-31T12:18:07;1.43;;;1.03;;
4831;SDS011;2430;51.322;7.864;2022-12-31T12:20:34;1.53;;;1.03;;
4831;SDS011;2430;51.322;7.864;2022-12-31T12:23:05;6.97;;;1.13;;
4831;SDS011;2430;51.322;7.864;2022-12-31T12:25:39;1.23;;;0.93;;
4831;SDS011;2430;51.322;7.864;2022-12-31T12:28:10;1.00;;;0.67;;
4831;SDS011;2430;51.322;7.864;2022-12-31T12:30:40;1.30;;;0.87;;
4831;SDS011;2430;51.322;7.864;2022-12-31T12:33:12;1.00;;;0.90;;
4831;SDS011;2430;51.322;7.864;2022-12-31T12:35:41;1.80;;;1.03;;
4831;SDS011;2430;51.322;7.864;2022-12-31T12:38:11;1.37;;;0.80;;
4831;SDS011;2430;51.322;7.864;2022-12-31T12:40:40;4.40;;;1.23;;
4831;SDS011;2430;51.322;7.864;2022-12-31T12:43:16;0.90;;;0.80;;
4831;SDS011;2430;51.322;7.864;2022-12-31T12:45:47;0.80;;;0.70;;
4831;SDS011;2430;51.322;7.864;2022-12-31T12:48:15;1.87;;;0.97;;
4831;SDS011;2430;51.322;7.864;2022-12-31T12:50:43;2.17;;;1.20;;
4831;SDS011;2430;51.322;7.864;2022-12-31T12:53:13;1.50;;;1.10;;
4831;SDS011;2430;51.322;7.864;2022-12-31T12:55:43;1.83;;;1.10;;
4831;SDS011;2430;51.322;7.864;2022-12-31T12:58:15;1.97;;;1.00;;
4831;SDS011;2430;51.322;7.864;2022-12-31T13:00:47;0.90;;;0.80;;
4831;SDS011;2430;51.322;7.864;2022-12-31T13:03:29;3.00;;;1.33;;
4831;SDS011;2430;51.322;7.864;2022-12-31T13:08:48;6.40;;;1.33;;
4831;SDS011;2430;51.322;7.864;2022-12-31T13:11:20;9.73;;;1.40;;
4831;SDS011;2430;51.322;7.864;2022-12-31T13:13:53;1.03;;;0.93;;
4831;SDS011;2430;51.322;7.864;2022-12-31T13:16:26;0.80;;;0.70;;
4831;SDS011;2430;51.322;7.864;2022-12-31T13:18:56;3.93;;;1.37;;
4831;SDS011;2430;51.322;7.864;2022-12-31T13:21:29;2.70;;;1.27;;
4831;SDS011;2430;51.322;7.864;2022-12-31T13:23:59;5.50;;;1.10;;
4831;SDS011;2430;51.322;7.864;2022-12-31T13:26:32;2.03;;;0.80;;
4831;SDS011;2430;51.322;7.864;2022-12-31T13:28:59;1.77;;;1.40;;
4831;SDS011;2430;51.322;7.864;2022-12-31T13:31:30;1.43;;;1.13;;
4831;SDS011;2430;51.322;7.864;2022-12-31T13:36:27;2.30;;;1.20;;
4831;SDS011;2430;51.322;7.864;2022-12-31T13:38:57;1.00;;;0.80;;
4831;SDS011;2430;51.322;7.864;2022-12-31T13:41:26;1.00;;;0.90;;
4831;SDS011;2430;51.322;7.864;2022-12-31T13:43:55;0.90;;;0.90;;
4831;SDS011;2430;51.322;7.864;2022-12-31T13:46:24;2.23;;;1.20;;
4831;SDS011;2430;51.322;7.864;2022-12-31T13:48:55;2.60;;;1.10;;
4831;SDS011;2430;51.322;7.864;2022-12-31T13:51:26;1.07;;;0.93;;
4831;SDS011;2430;51.322;7.864;2022-12-31T13:53:56;0.80;;;0.80;;
4831;SDS011;2430;51.322;7.864;2022-12-31T13:56:26;1.40;;;1.00;;
4831;SDS011;2430;51.322;7.864;2022-12-31T13:58:56;1.67;;;1.03;;
4831;SDS011;2430;51.322;7.864;2022-12-31T14:01:27;1.50;;;1.00;;
4831;SDS011;2430;51.322;7.864;2022-12-31T14:04:03;1.93;;;1.40;;
4831;SDS011;2430;51.322;7.864;2022-12-31T14:06:31;1.73;;;1.00;;
4831;SDS011;2430;51.322;7.864;2022-12-31T14:08:59;0.90;;;0.80;;
4831;SDS011;2430;51.322;7.864;2022-12-31T14:11:29;9.53;;;1.13;;
4831;SDS011;2430;51.322;7.864;2022-12-31T14:14:02;1.20;;;0.90;;
4831;SDS011;2430;51.322;7.864;2022-12-31T14:16:33;1.13;;;0.93;;
4831;SDS011;2430;51.322;7.864;2022-12-31T14:19:02;1.20;;;1.10;;
4831;SDS011;2430;51.322;7.864;2022-12-31T14:21:33;1.17;;;1.00;;
4831;SDS011;2430;51.322;7.864;2022-12-31T14:24:04;2.70;;;1.20;;
4831;SDS011;2430;51.322;7.864;2022-12-31T14:26:32;1.80;;;1.03;;
4831;SDS011;2430;51.322;7.864;2022-12-31T14:29:02;6.97;;;1.20;;
4831;SDS011;2430;51.322;7.864;2022-12-31T14:31:36;1.10;;;0.93;;
4831;SDS011;2430;51.322;7.864;2022-12-31T14:34:10;2.77;;;1.17;;
4831;SDS011;2430;51.322;7.864;2022-12-31T14:36:45;0.77;;;0.70;;
4831;SDS011;2430;51.322;7.864;2022-12-31T14:39:22;1.17;;;1.03;;
4831;SDS011;2430;51.322;7.864;2022-12-31T14:41:57;2.13;;;1.13;;
4831;SDS011;2430;51.322;7.864;2022-12-31T14:44:28;2.00;;;0.97;;
4831;SDS011;2430;51.322;7.864;2022-12-31T14:47:05;1.43;;;1.27;;
4831;SDS011;2430;51.322;7.864;2022-12-31T14:49:39;2.53;;;1.03;;
4831;SDS011;2430;51.322;7.864;2022-12-31T14:52:18;6.33;;;1.33;;
4831;SDS011;2430;51.322;7.864;2022-12-31T14:54:45;1.63;;;1.10;;
4831;SDS011;2430;51.322;7.864;2022-12-31T14:57:24;1.10;;;1.00;;
4831;SDS011;2430;51.322;7.864;2022-12-31T14:59:51;1.10;;;0.90;;
4831;SDS011;2430;51.322;7.864;2022-12-31T15:02:24;1.40;;;1.17;;
4831;SDS011;2430;51.322;7.864;2022-12-31T15:04:50;1.03;;;0.93;;
4831;SDS011;2430;51.322;7.864;2022-12-31T15:07:32;1.00;;;0.90;;
4831;SDS011;2430;51.322;7.864;2022-12-31T15:10:02;3.93;;;1.10;;
4831;SDS011;2430;51.322;7.864;2022-12-31T15:12:48;1.90;;;1.43;;
4831;SDS011;2430;51.322;7.864;2022-12-31T15:18:05;4.33;;;1.10;;
4831;SDS011;2430;51.322;7.864;2022-12-31T15:20:43;3.37;;;1.57;;
4831;SDS011;2430;51.322;7.864;2022-12-31T15:23:18;1.07;;;0.97;;
4831;SDS011;2430;51.322;7.864;2022-12-31T15:25:46;1.30;;;1.07;;
4831;SDS011;2430;51.322;7.864;2022-12-31T15:30:59;3.73;;;1.30;;
4831;SDS011;2430;51.322;7.864;2022-12-31T15:33:28;6.93;;;1.93;;
4831;SDS011;2430;51.322;7.864;2022-12-31T15:35:56;5.53;;;1.03;;
4831;SDS011;2430;51.322;7.864;2022-12-31T15:38:30;3.03;;;0.80;;
4831;SDS011;2430;51.322;7.864;2022-12-31T15:40:57;1.33;;;1.23;;
4831;SDS011;2430;51.322;7.864;2022-12-31T15:43:34;4.30;;;1.67;;
4831;SDS011;2430;51.322;7.864;2022-12-31T15:46:06;1.60;;;1.33;;
4831;SDS011;2430;51.322;7.864;2022-12-31T15:48:36;1.43;;;1.00;;
4831;SDS011;2430;51.322;7.864;2022-12-31T15:51:06;1.10;;;1.00;;
4831;SDS011;2430;51.322;7.864;2022-12-31T15:53:38;1.70;;;1.33;;
4831;SDS011;2430;51.322;7.864;2022-12-31T15:56:06;1.90;;;1.47;;
4831;SDS011;2430;51.322;7.864;2022-12-31T15:58:37;2.30;;;1.33;;
4831;SDS011;2430;51.322;7.864;2022-12-31T16:01:06;0.77;;;0.70;;
4831;SDS011;2430;51.322;7.864;2022-12-31T16:03:35;1.03;;;0.93;;
4831;SDS011;2430;51.322;7.864;2022-12-31T16:06:02;2.43;;;1.10;;
4831;SDS011;2430;51.322;7.864;2022-12-31T16:08:30;1.93;;;1.03;;
4831;SDS011;2430;51.322;7.864;2022-12-31T16:10:59;1.60;;;0.93;;
4831;SDS011;2430;51.322;7.864;2022-12-31T16:13:26;1.17;;;1.07;;